Time;durP1;ratioP1;P1;durP2;ratioP2;P2;SDS_P1;SDS_P2;PMS_P1;PMS_P2;Temp;Humidity;BMP_temperature;BMP_pressure;BME280_temperature;BME280_humidity;BME280_pressure;Samples;Min_cycle;Max_cycle;Signal;HPM_P1;HPM_P2
2024/02/11 00:00:23;;;;;;;4.20;2.40;;;12.80;99.90;;;;;;5095505;28;20179;-86
2024/02/11 00:02:51;;;;;;;3.47;2.23;;;12.80;99.90;;;;;;5077296;28;20179;-85
2024/02/11 00:05:16;;;;;;;5.27;2.80;;;12.70;99.90;;;;;;5077537;28;20539;-84
2024/02/11 00:07:43;;;;;;;3.67;2.90;;;12.60;99.90;;;;;;5077188;28;20168;-84
2024/02/11 00:10:09;;;;;;;3.43;2.53;;;12.50;99.90;;;;;;5076815;28;20605;-85
2024/02/11 00:12:38;;;;;;;3.07;2.23;;;12.50;99.90;;;;;;5076634;28;20206;-85
2024/02/11 00:15:05;;;;;;;2.90;2.30;;;12.60;99.90;;;;;;5077743;28;20194;-84
2024/02/11 00:17:32;;;;;;;3.50;2.40;;;12.50;99.90;;;;;;5078168;28;20274;-84
2024/02/11 00:19:59;;;;;;;2.90;2.60;;;12.50;99.90;;;;;;5078877;28;20177;-84
2024/02/11 00:22:25;;;;;;;3.03;2.53;;;12.40;99.90;;;;;;5078101;28;20172;-84
2024/02/11 00:24:53;;;;;;;4.07;3.30;;;12.40;99.90;;;;;;5077798;28;20674;-85
2024/02/11 00:27:22;;;;;;;3.53;3.03;;;12.40;99.90;;;;;;5077204;28;20176;-84
2024/02/11 00:29:49;;;;;;;3.93;3.20;;;12.40;99.90;;;;;;5077099;28;20271;-85
2024/02/11 00:32:15;;;;;;;3.90;3.27;;;12.40;99.90;;;;;;5076943;28;20215;-83
2024/02/11 00:34:41;;;;;;;4.43;3.50;;;12.40;99.90;;;;;;5078394;28;20515;-85
2024/02/11 00:37:10;;;;;;;4.60;3.80;;;12.30;99.90;;;;;;5076967;28;20168;-83
2024/02/11 00:39:36;;;;;;;5.43;4.37;;;12.20;99.90;;;;;;5078684;28;20179;-85
2024/02/11 00:42:02;;;;;;;6.43;4.53;;;12.10;99.90;;;;;;5078397;28;20176;-91
2024/02/11 00:44:30;;;;;;;4.93;4.43;;;12.20;99.90;;;;;;5076251;28;20535;-85
2024/02/11 00:46:56;;;;;;;5.67;5.03;;;12.20;99.90;;;;;;5093668;28;20168;-85
2024/02/11 00:49:22;;;;;;;6.80;4.90;;;12.20;99.90;;;;;;5075674;28;20186;-84
2024/02/11 00:51:48;;;;;;;5.77;5.13;;;12.30;99.90;;;;;;5075604;28;20203;-85
2024/02/11 00:54:14;;;;;;;6.47;5.00;;;12.20;99.90;;;;;;5075364;28;20182;-85
2024/02/11 00:56:43;;;;;;;7.57;5.70;;;12.20;99.90;;;;;;5075367;28;20172;-85
2024/02/11 00:59:10;;;;;;;7.40;5.60;;;12.20;99.90;;;;;;5075506;28;20197;-84
2024/02/11 01:01:39;;;;;;;7.30;5.87;;;12.10;99.90;;;;;;5075308;28;20195;-86
2024/02/11 01:04:05;;;;;;;6.83;5.53;;;12.10;99.90;;;;;;5075383;28;20168;-92
2024/02/11 01:06:31;;;;;;;6.43;5.83;;;12.00;99.90;;;;;;5075577;28;20695;-85
2024/02/11 01:08:56;;;;;;;6.87;5.80;;;12.10;99.90;;;;;;5075543;28;20272;-84
2024/02/11 01:11:23;;;;;;;7.30;6.47;;;12.10;99.90;;;;;;5092974;28;20286;-85
2024/02/11 01:13:49;;;;;;;9.37;8.37;;;12.10;99.90;;;;;;5078625;28;20175;-85
2024/02/11 01:16:15;;;;;;;11.87;10.67;;;12.00;99.90;;;;;;5086623;28;20790;-84
2024/02/11 01:18:40;;;;;;;15.07;13.57;;;11.70;99.90;;;;;;5075528;28;20179;-87
2024/02/11 01:21:07;;;;;;;13.47;11.87;;;11.60;99.90;;;;;;5075191;28;20531;-85
2024/02/11 01:23:33;;;;;;;11.97;10.77;;;11.30;99.90;;;;;;5074413;28;20650;-84
2024/02/11 01:25:59;;;;;;;10.80;9.67;;;11.30;99.90;;;;;;5074558;28;20645;-84
2024/02/11 01:28:25;;;;;;;10.27;8.70;;;11.20;99.90;;;;;;5075403;28;20227;-90
2024/02/11 01:30:51;;;;;;;10.10;9.10;;;10.90;99.90;;;;;;5075298;28;20201;-86
2024/02/11 01:33:16;;;;;;;9.90;8.90;;;10.90;99.90;;;;;;5093189;28;20182;-83
2024/02/11 01:35:42;;;;;;;10.67;9.23;;;10.90;99.90;;;;;;5074988;28;20172;-85
2024/02/11 01:38:10;;;;;;;10.87;9.80;;;10.80;99.90;;;;;;5075028;28;20176;-85
2024/02/11 01:40:35;;;;;;;10.73;9.63;;;10.70;99.90;;;;;;5074541;28;20175;-84
2024/02/11 01:43:11;;;;;;;10.60;9.60;;;10.60;99.90;;;;;;5074742;28;20245;-89
2024/02/11 01:45:37;;;;;;;9.40;7.90;;;10.60;99.90;;;;;;5074619;28;20341;-83
2024/02/11 01:48:04;;;;;;;7.93;7.17;;;10.70;99.90;;;;;;5074687;28;20305;-85
2024/02/11 01:50:38;;;;;;;8.33;7.33;;;10.40;99.90;;;;;;5074708;28;20183;-84
2024/02/11 01:53:05;;;;;;;7.77;6.97;;;10.30;99.90;;;;;;5074797;28;20274;-85
2024/02/11 01:55:33;;;;;;;9.03;6.27;;;10.30;99.90;;;;;;5074502;28;20172;-84
2024/02/11 01:57:59;;;;;;;7.80;6.23;;;10.20;99.90;;;;;;5074985;28;20665;-84
2024/02/11 02:00:25;;;;;;;7.93;5.70;;;10.40;99.90;;;;;;5074372;28;20191;-84
2024/02/11 02:02:55;;;;;;;8.67;5.87;;;10.20;99.90;;;;;;5074759;28;20172;-89
2024/02/11 02:05:20;;;;;;;9.37;6.93;;;10.20;99.90;;;;;;5074654;28;20217;-83
2024/02/11 02:07:46;;;;;;;8.57;6.13;;;10.30;99.90;;;;;;5075023;28;20172;-85
2024/02/11 02:10:13;;;;;;;6.07;5.43;;;10.40;99.90;;;;;;5074243;28;20681;-83
2024/02/11 02:12:40;;;;;;;8.37;6.23;;;10.20;99.90;;;;;;5092694;28;20306;-84
2024/02/11 02:15:08;;;;;;;8.57;5.47;;;10.20;99.90;;;;;;5074613;28;20168;-84
2024/02/11 02:17:35;;;;;;;5.77;5.20;;;10.10;99.90;;;;;;5075012;28;20266;-85
2024/02/11 02:20:02;;;;;;;6.73;5.43;;;10.10;99.90;;;;;;5092781;28;20171;-90
2024/02/11 02:22:29;;;;;;;7.53;5.63;;;10.10;99.90;;;;;;5074683;28;20640;-85
2024/02/11 02:24:55;;;;;;;7.40;5.73;;;10.10;99.90;;;;;;5074310;28;20222;-85
2024/02/11 02:27:22;;;;;;;8.50;5.83;;;10.10;99.90;;;;;;5074297;28;20330;-87
2024/02/11 02:29:48;;;;;;;9.53;5.87;;;10.10;99.90;;;;;;5074604;28;20236;-83
2024/02/11 02:32:13;;;;;;;10.37;7.17;;;10.20;99.90;;;;;;5074582;28;20302;-84
2024/02/11 02:34:40;;;;;;;9.30;6.67;;;10.30;99.90;;;;;;5076434;28;20234;-85
2024/02/11 02:37:06;;;;;;;7.33;6.57;;;10.20;99.90;;;;;;5077950;28;20650;-83
2024/02/11 02:39:32;;;;;;;8.67;6.57;;;10.10;99.90;;;;;;5077553;28;20179;-85
2024/02/11 02:41:58;;;;;;;8.87;6.83;;;10.20;99.90;;;;;;5095952;28;20493;-86
2024/02/11 02:44:24;;;;;;;8.97;6.47;;;10.20;99.90;;;;;;5077854;28;20165;-84
2024/02/11 02:46:52;;;;;;;10.13;6.80;;;10.30;99.90;;;;;;5077634;28;20547;-91
2024/02/11 02:49:18;;;;;;;9.97;6.70;;;10.30;99.90;;;;;;5077530;28;20168;-83
2024/02/11 02:51:44;;;;;;;9.07;7.10;;;10.30;99.90;;;;;;5077259;28;20569;-85
2024/02/11 02:54:12;;;;;;;10.53;6.57;;;10.20;99.90;;;;;;5077697;28;20167;-85
2024/02/11 02:56:38;;;;;;;8.97;6.33;;;10.30;99.90;;;;;;5077518;28;20176;-86
2024/02/11 02:59:05;;;;;;;10.20;6.00;;;10.20;99.90;;;;;;5077508;28;20215;-88
2024/02/11 03:01:31;;;;;;;9.80;5.57;;;10.10;99.90;;;;;;5077174;28;20202;-85
2024/02/11 03:04:01;;;;;;;8.73;5.50;;;10.30;99.90;;;;;;5077722;28;20175;-84
2024/02/11 03:06:28;;;;;;;9.97;5.63;;;10.20;99.90;;;;;;5077473;28;20176;-84
2024/02/11 03:08:54;;;;;;;12.40;5.00;;;10.20;99.90;;;;;;5078065;28;20182;-84
2024/02/11 03:11:20;;;;;;;7.57;4.47;;;10.20;99.90;;;;;;5076981;28;20257;-84
2024/02/11 03:13:46;;;;;;;8.33;4.27;;;10.00;99.90;;;;;;5077575;28;20175;-84
2024/02/11 03:16:15;;;;;;;8.47;4.60;;;9.80;99.90;;;;;;5077080;28;20549;-83
2024/02/11 03:18:42;;;;;;;7.77;3.30;;;9.90;99.90;;;;;;5095444;28;20168;-85
2024/02/11 03:21:09;;;;;;;9.03;3.40;;;9.90;99.90;;;;;;5076920;28;20266;-84
2024/02/11 03:23:37;;;;;;;10.70;3.50;;;9.90;99.90;;;;;;5077168;28;20171;-84
2024/02/11 03:26:10;;;;;;;9.03;3.83;;;9.90;99.90;;;;;;5076836;28;20175;-84
2024/02/11 03:28:40;;;;;;;7.50;3.10;;;9.80;99.90;;;;;;5076838;28;20198;-85
2024/02/11 03:31:07;;;;;;;7.77;3.63;;;9.80;99.90;;;;;;5077125;28;20292;-83
2024/02/11 03:33:36;;;;;;;10.67;3.77;;;9.70;99.90;;;;;;5076788;28;20179;-85
2024/02/11 03:36:03;;;;;;;10.53;3.60;;;9.80;99.90;;;;;;5077744;28;20183;-84
2024/02/11 03:38:29;;;;;;;8.77;3.60;;;9.70;99.90;;;;;;5078632;28;20168;-83
2024/02/11 03:40:56;;;;;;;10.77;3.40;;;9.80;99.90;;;;;;5076861;28;20186;-84
2024/02/11 03:43:22;;;;;;;8.03;3.67;;;9.80;99.90;;;;;;5076651;28;20168;-84
2024/02/11 03:45:49;;;;;;;11.50;3.60;;;9.80;99.90;;;;;;5076113;28;20203;-83
2024/02/11 03:48:15;;;;;;;10.80;3.27;;;9.80;99.90;;;;;;5076429;28;20593;-84
2024/02/11 03:50:41;;;;;;;11.37;3.67;;;9.70;99.90;;;;;;5076846;28;20215;-83
2024/02/11 03:53:08;;;;;;;10.67;2.97;;;9.70;99.90;;;;;;5076664;28;20184;-84
2024/02/11 03:55:33;;;;;;;7.67;3.23;;;9.60;99.90;;;;;;5094393;28;20171;-83
2024/02/11 03:58:02;;;;;;;8.67;3.00;;;9.50;99.90;;;;;;5076408;28;20287;-85
2024/02/11 04:00:30;;;;;;;10.97;3.00;;;9.60;99.90;;;;;;5076283;28;20192;-84
2024/02/11 04:02:57;;;;;;;9.17;2.80;;;9.70;99.90;;;;;;5076021;28;20259;-84
2024/02/11 04:05:24;;;;;;;8.57;2.97;;;9.80;99.90;;;;;;5076096;28;20180;-83
2024/02/11 04:07:50;;;;;;;11.47;2.97;;;9.70;99.90;;;;;;5076220;28;20169;-84
2024/02/11 04:10:23;;;;;;;7.63;2.70;;;9.80;99.90;;;;;;5094262;28;20200;-84
2024/02/11 04:12:52;;;;;;;10.87;2.90;;;9.60;99.90;;;;;;5075931;28;20695;-83
2024/02/11 04:15:22;;;;;;;15.93;3.30;;;9.70;99.90;;;;;;5075695;28;20171;-84
2024/02/11 04:17:49;;;;;;;6.87;2.40;;;9.70;99.90;;;;;;5075505;28;20271;-83
2024/02/11 04:20:16;;;;;;;7.40;2.50;;;9.70;99.90;;;;;;5075649;28;20175;-85
2024/02/11 04:22:43;;;;;;;10.33;3.63;;;9.60;99.90;;;;;;5075552;28;20178;-83
2024/02/11 04:25:11;;;;;;;10.13;2.73;;;9.50;99.90;;;;;;5093918;28;20164;-85
2024/02/11 04:27:40;;;;;;;7.70;3.00;;;9.60;99.90;;;;;;5075510;28;20252;-84
2024/02/11 04:30:12;;;;;;;8.70;2.80;;;9.60;99.90;;;;;;5075877;28;20164;-90
2024/02/11 04:32:42;;;;;;;12.97;3.20;;;9.60;99.90;;;;;;5093603;28;20602;-84
2024/02/11 04:35:14;;;;;;;11.67;3.83;;;9.60;99.90;;;;;;5075667;28;20168;-84
2024/02/11 04:37:47;;;;;;;14.83;4.30;;;9.50;99.90;;;;;;5075766;28;20708;-83
2024/02/11 04:40:15;;;;;;;14.13;4.97;;;9.40;99.90;;;;;;5075492;28;20207;-84
2024/02/11 04:42:52;;;;;;;11.40;4.57;;;9.40;99.90;;;;;;5075511;28;20263;-84
2024/02/11 04:45:19;;;;;;;13.57;5.03;;;9.40;99.90;;;;;;5075493;28;20648;-87
2024/02/11 04:47:49;;;;;;;13.03;5.37;;;9.40;99.90;;;;;;5075037;28;20202;-86
2024/02/11 04:50:16;;;;;;;11.70;4.73;;;9.40;99.90;;;;;;5075086;28;20168;-84
2024/02/11 04:52:54;;;;;;;15.30;5.37;;;9.40;99.90;;;;;;5075743;28;20299;-84
2024/02/11 04:55:27;;;;;;;13.37;5.13;;;9.40;99.90;;;;;;5075155;28;20179;-83
2024/02/11 04:57:56;;;;;;;10.93;5.77;;;9.40;99.90;;;;;;5074278;28;20202;-83
2024/02/11 05:00:25;;;;;;;15.03;5.63;;;9.30;99.90;;;;;;5075066;28;20181;-84
2024/02/11 05:03:03;;;;;;;13.93;6.13;;;9.40;99.90;;;;;;5074843;28;20495;-84
2024/02/11 05:05:31;;;;;;;17.73;6.80;;;9.60;99.90;;;;;;5074873;28;20175;-83
2024/02/11 05:08:03;;;;;;;12.70;6.27;;;9.30;99.90;;;;;;5075051;28;20179;-83
2024/02/11 05:10:37;;;;;;;16.57;5.73;;;9.40;99.90;;;;;;5074743;28;20172;-85
2024/02/11 05:13:08;;;;;;;12.73;5.97;;;9.50;99.90;;;;;;5075081;28;20290;-85
2024/02/11 05:15:37;;;;;;;15.93;6.27;;;9.40;99.90;;;;;;5074927;28;20173;-84
2024/02/11 05:18:03;;;;;;;12.77;6.13;;;9.30;99.90;;;;;;5074973;28;20190;-83
2024/02/11 05:20:31;;;;;;;15.80;7.17;;;9.30;99.90;;;;;;5074953;28;20268;-84
2024/02/11 05:22:58;;;;;;;18.63;7.73;;;9.40;99.90;;;;;;5075037;28;20173;-83
2024/02/11 05:25:25;;;;;;;17.70;7.07;;;9.50;99.90;;;;;;5074821;28;20279;-85
2024/02/11 05:28:02;;;;;;;16.17;7.13;;;9.40;99.90;;;;;;5075015;28;20181;-83
2024/02/11 05:30:34;;;;;;;21.63;7.60;;;9.40;99.90;;;;;;5074760;28;20179;-86
2024/02/11 05:33:02;;;;;;;14.53;7.20;;;9.40;99.90;;;;;;5074496;28;20248;-86
2024/02/11 05:35:28;;;;;;;15.13;7.60;;;9.40;99.90;;;;;;5074645;28;20254;-83
2024/02/11 05:37:58;;;;;;;13.93;7.70;;;9.50;99.90;;;;;;5075176;28;20185;-85
2024/02/11 05:40:42;;;;;;;14.73;8.00;;;9.60;99.90;;;;;;5074555;28;20575;-84
2024/02/11 05:43:09;;;;;;;17.50;8.07;;;9.50;99.90;;;;;;5075108;28;20212;-85
2024/02/11 05:45:39;;;;;;;18.13;9.17;;;9.60;99.90;;;;;;5074267;28;20659;-86
2024/02/11 05:48:05;;;;;;;14.73;8.50;;;9.60;99.90;;;;;;5075123;28;20279;-85
2024/02/11 05:50:31;;;;;;;21.23;8.60;;;9.50;99.90;;;;;;5074572;28;20200;-84
2024/02/11 05:52:57;;;;;;;17.97;9.10;;;9.60;99.90;;;;;;5074740;28;20346;-83
2024/02/11 05:55:23;;;;;;;18.53;9.67;;;9.50;99.90;;;;;;5076841;28;20175;-83
2024/02/11 05:57:51;;;;;;;21.10;9.40;;;9.60;99.90;;;;;;5079483;28;20203;-83
2024/02/11 06:00:24;;;;;;;17.80;9.60;;;9.50;99.90;;;;;;5074050;28;20202;-84
2024/02/11 06:02:55;;;;;;;21.17;11.33;;;9.50;99.90;;;;;;5074501;28;20172;-84
2024/02/11 06:05:22;;;;;;;17.77;10.20;;;9.50;99.90;;;;;;5093037;28;20177;-85
2024/02/11 06:07:51;;;;;;;16.67;9.27;;;9.50;99.90;;;;;;5075526;28;20168;-84
2024/02/11 06:10:18;;;;;;;18.47;9.70;;;9.50;99.90;;;;;;5078341;28;20171;-83
2024/02/11 06:12:45;;;;;;;22.53;10.63;;;9.40;99.90;;;;;;5078329;28;20287;-84
2024/02/11 06:15:20;;;;;;;15.93;9.10;;;9.50;99.90;;;;;;5096047;28;20176;-84
2024/02/11 06:17:46;;;;;;;20.40;10.80;;;9.50;99.90;;;;;;5096655;28;20222;-84
2024/02/11 06:20:17;;;;;;;24.77;10.63;;;9.50;99.90;;;;;;5096332;28;20169;-83
2024/02/11 06:22:44;;;;;;;18.43;9.70;;;9.50;99.90;;;;;;5078305;28;20235;-84
2024/02/11 06:25:11;;;;;;;20.50;10.27;;;9.50;99.90;;;;;;5078117;28;20251;-83
2024/02/11 06:27:40;;;;;;;27.50;10.77;;;9.50;99.90;;;;;;5078209;28;20176;-84
2024/02/11 06:30:13;;;;;;;23.03;10.73;;;9.60;99.90;;;;;;5078075;28;20180;-84
2024/02/11 06:32:44;;;;;;;23.37;9.47;;;9.50;99.90;;;;;;5077969;28;20306;-88
2024/02/11 06:35:10;;;;;;;18.63;9.93;;;9.60;99.90;;;;;;5078006;28;20540;-83
2024/02/11 06:37:38;;;;;;;20.43;10.73;;;9.60;99.90;;;;;;5077919;28;20522;-86
2024/02/11 06:40:12;;;;;;;23.00;10.20;;;9.60;99.90;;;;;;5077793;28;20164;-85
2024/02/11 06:42:39;;;;;;;20.13;9.90;;;9.60;99.90;;;;;;5095983;28;20174;-83
2024/02/11 06:45:08;;;;;;;18.10;10.77;;;9.70;99.90;;;;;;5077383;28;20624;-84
2024/02/11 06:47:35;;;;;;;22.07;10.47;;;9.80;99.90;;;;;;5077293;28;20260;-82
2024/02/11 06:50:03;;;;;;;23.67;10.07;;;9.80;99.90;;;;;;5077321;28;20176;-84
2024/02/11 06:52:28;;;;;;;18.50;9.87;;;9.70;99.90;;;;;;5077402;28;20214;-91
2024/02/11 06:54:55;;;;;;;22.93;9.53;;;9.70;99.90;;;;;;5077477;28;20172;-85
2024/02/11 06:57:22;;;;;;;22.83;10.13;;;9.70;99.90;;;;;;5077352;28;20328;-84
2024/02/11 06:59:48;;;;;;;21.87;9.60;;;9.70;99.90;;;;;;5077433;28;20200;-84
2024/02/11 07:02:14;;;;;;;23.00;9.63;;;9.90;99.90;;;;;;5077562;28;20639;-84
2024/02/11 07:04:41;;;;;;;24.27;11.07;;;9.90;99.90;;;;;;5077463;28;20164;-83
2024/02/11 07:07:09;;;;;;;30.70;11.70;;;9.80;99.90;;;;;;5077431;28;20175;-86
2024/02/11 07:09:39;;;;;;;24.43;12.20;;;9.80;99.90;;;;;;5095747;28;20163;-83
2024/02/11 07:12:06;;;;;;;21.90;10.37;;;9.80;99.90;;;;;;5076999;28;20291;-83
2024/02/11 07:14:32;;;;;;;22.43;10.10;;;9.80;99.90;;;;;;5077988;28;20186;-84
2024/02/11 07:17:00;;;;;;;22.40;10.07;;;9.80;99.90;;;;;;5077031;28;20184;-83
2024/02/11 07:19:28;;;;;;;25.67;9.80;;;10.00;99.90;;;;;;5077244;28;20589;-84
2024/02/11 07:21:53;;;;;;;18.30;9.53;;;9.80;99.90;;;;;;5076421;28;20210;-83
2024/02/11 07:24:19;;;;;;;22.87;9.87;;;10.00;99.90;;;;;;5077170;28;20226;-83
2024/02/11 07:26:49;;;;;;;22.20;10.00;;;9.80;99.90;;;;;;5077090;28;20191;-84
2024/02/11 07:29:16;;;;;;;20.37;9.70;;;9.80;99.90;;;;;;5076599;28;20543;-89
2024/02/11 07:31:41;;;;;;;22.23;9.60;;;9.80;99.90;;;;;;5076660;28;20256;-84
2024/02/11 07:34:08;;;;;;;18.30;9.60;;;9.70;99.90;;;;;;5077186;28;20254;-83
2024/02/11 07:36:33;;;;;;;20.67;9.77;;;9.80;99.90;;;;;;5076774;28;20166;-84
2024/02/11 07:38:59;;;;;;;22.57;10.00;;;9.70;99.90;;;;;;5076802;28;20648;-83
2024/02/11 07:41:25;;;;;;;20.60;9.37;;;9.60;99.90;;;;;;5077759;28;20269;-83
2024/02/11 07:43:53;;;;;;;23.10;9.90;;;9.70;99.90;;;;;;5076583;28;20180;-87
2024/02/11 07:46:19;;;;;;;20.83;9.67;;;9.70;99.90;;;;;;5076434;28;20212;-90
2024/02/11 07:48:45;;;;;;;20.70;9.33;;;9.70;99.90;;;;;;5076164;28;20215;-84
2024/02/11 07:51:14;;;;;;;15.77;8.20;;;9.70;99.90;;;;;;5076313;28;20204;-84
2024/02/11 07:53:40;;;;;;;19.73;9.80;;;9.60;99.90;;;;;;5076438;28;20187;-85
2024/02/11 07:56:14;;;;;;;20.93;9.47;;;9.70;99.90;;;;;;5076258;28;20298;-84
2024/02/11 07:58:40;;;;;;;20.73;8.03;;;9.80;99.90;;;;;;5076370;28;20247;-85
2024/02/11 08:01:07;;;;;;;20.63;8.57;;;9.80;99.90;;;;;;5076008;28;20277;-84
2024/02/11 08:03:33;;;;;;;22.77;8.63;;;9.70;99.90;;;;;;5076201;28;20172;-84
2024/02/11 08:05:59;;;;;;;25.77;9.63;;;9.80;99.90;;;;;;5076141;28;20171;-83
2024/02/11 08:08:25;;;;;;;19.30;8.47;;;9.90;99.90;;;;;;5076048;28;20173;-84
2024/02/11 08:10:51;;;;;;;20.20;8.30;;;9.80;99.90;;;;;;5075637;28;20173;-84
2024/02/11 08:13:17;;;;;;;18.43;8.77;;;9.70;99.90;;;;;;5097189;28;20176;-82
2024/02/11 08:15:43;;;;;;;17.40;6.83;;;9.80;99.90;;;;;;5094956;28;20263;-84
2024/02/11 08:18:09;;;;;;;20.40;8.57;;;9.90;99.90;;;;;;5075722;28;20271;-85
2024/02/11 08:20:35;;;;;;;19.97;9.10;;;9.80;99.90;;;;;;5093945;28;20172;-84
2024/02/11 08:23:02;;;;;;;18.33;8.63;;;9.80;99.90;;;;;;5075747;28;20184;-84
2024/02/11 08:25:28;;;;;;;17.93;8.23;;;9.80;99.90;;;;;;5075669;28;20267;-84
2024/02/11 08:27:55;;;;;;;22.03;8.50;;;9.90;99.90;;;;;;5075611;28;20168;-84
2024/02/11 08:30:22;;;;;;;17.33;7.67;;;10.00;99.90;;;;;;5075611;28;20259;-85
2024/02/11 08:32:48;;;;;;;19.43;8.07;;;9.80;99.90;;;;;;5075118;28;20665;-85
2024/02/11 08:35:14;;;;;;;17.00;8.07;;;9.90;99.90;;;;;;5075552;28;20326;-85
2024/02/11 08:37:41;;;;;;;21.33;8.43;;;9.90;99.90;;;;;;5075572;28;20226;-84
2024/02/11 08:40:07;;;;;;;20.97;7.50;;;10.00;99.90;;;;;;5075111;28;20211;-85
2024/02/11 08:42:33;;;;;;;19.27;8.10;;;10.00;99.90;;;;;;5075311;28;20199;-84
2024/02/11 08:44:59;;;;;;;16.00;7.90;;;10.10;99.90;;;;;;5074832;28;20169;-85
2024/02/11 08:47:25;;;;;;;19.33;8.27;;;10.00;99.90;;;;;;5075451;28;20279;-84
2024/02/11 08:49:51;;;;;;;20.10;8.57;;;10.00;99.90;;;;;;5075113;28;20717;-84
2024/02/11 08:52:17;;;;;;;16.30;8.33;;;10.10;99.90;;;;;;5093449;28;20663;-86
2024/02/11 08:54:42;;;;;;;18.23;7.50;;;10.10;99.90;;;;;;5075095;28;20631;-85
2024/02/11 08:57:09;;;;;;;19.20;7.87;;;10.10;99.90;;;;;;5075248;28;20171;-86
2024/02/11 08:59:41;;;;;;;15.23;7.07;;;10.30;99.90;;;;;;5074961;28;20168;-85
2024/02/11 09:02:10;;;;;;;15.77;7.10;;;10.20;99.90;;;;;;5093531;28;20256;-91
2024/02/11 09:04:36;;;;;;;14.23;7.00;;;10.30;99.90;;;;;;5093479;28;20183;-85
2024/02/11 09:07:01;;;;;;;18.87;7.80;;;10.50;99.90;;;;;;5075078;28;20654;-85
2024/02/11 09:09:27;;;;;;;17.97;6.93;;;10.40;99.90;;;;;;5075119;28;20171;-85
2024/02/11 09:11:57;;;;;;;19.87;7.83;;;10.40;99.90;;;;;;5075211;28;20277;-84
2024/02/11 09:14:25;;;;;;;18.63;7.43;;;10.30;99.90;;;;;;5075035;28;20173;-84
2024/02/11 09:16:52;;;;;;;20.63;7.33;;;10.40;99.90;;;;;;5074698;28;20187;-88
2024/02/11 09:19:18;;;;;;;15.77;7.20;;;10.50;99.90;;;;;;5092835;28;20176;-84
2024/02/11 09:21:43;;;;;;;18.87;7.47;;;10.60;99.90;;;;;;5074554;28;20167;-89
2024/02/11 09:24:10;;;;;;;15.70;6.77;;;10.70;99.90;;;;;;5074325;28;20637;-84
2024/02/11 09:26:37;;;;;;;16.40;7.07;;;10.70;99.90;;;;;;5074771;28;20401;-85
2024/02/11 09:29:04;;;;;;;17.60;7.93;;;10.50;99.90;;;;;;5074319;28;20274;-86
2024/02/11 09:31:31;;;;;;;18.40;7.87;;;10.40;99.90;;;;;;5092896;28;20211;-85
2024/02/11 09:33:57;;;;;;;17.43;6.70;;;10.40;99.90;;;;;;5074621;28;20206;-85
2024/02/11 09:36:23;;;;;;;14.97;6.60;;;10.40;99.90;;;;;;5074415;28;20175;-84
2024/02/11 09:38:49;;;;;;;17.03;7.23;;;10.30;99.90;;;;;;5074391;28;20172;-85
2024/02/11 09:41:14;;;;;;;18.13;7.53;;;10.40;99.90;;;;;;5074331;28;20253;-84
2024/02/11 09:43:41;;;;;;;19.20;6.70;;;10.40;99.90;;;;;;5075149;28;20184;-87
2024/02/11 09:46:08;;;;;;;17.50;7.33;;;10.30;99.90;;;;;;5078632;28;20177;-85
2024/02/11 09:48:36;;;;;;;21.07;7.97;;;10.30;99.90;;;;;;5078631;28;20171;-85
2024/02/11 09:51:03;;;;;;;12.67;6.33;;;10.40;99.90;;;;;;5078390;28;20636;-84
2024/02/11 09:53:33;;;;;;;16.67;6.03;;;10.40;99.90;;;;;;5078232;28;20192;-85
2024/02/11 09:55:59;;;;;;;11.60;5.87;;;10.40;99.90;;;;;;5078509;28;20648;-84
2024/02/11 09:58:25;;;;;;;15.73;6.23;;;10.40;99.90;;;;;;5078819;28;20204;-84
2024/02/11 10:00:52;;;;;;;14.80;5.70;;;10.60;99.90;;;;;;5077919;28;20188;-84
2024/02/11 10:03:19;;;;;;;16.00;5.70;;;10.80;99.90;;;;;;5078326;28;20266;-85
2024/02/11 10:05:48;;;;;;;15.07;5.40;;;10.70;99.90;;;;;;5078204;28;20211;-85
2024/02/11 10:08:15;;;;;;;13.50;5.10;;;10.80;99.90;;;;;;5077785;28;20270;-86
2024/02/11 10:10:45;;;;;;;14.17;5.80;;;10.90;99.90;;;;;;5077927;28;20170;-84
2024/02/11 10:13:19;;;;;;;13.13;5.40;;;11.00;99.90;;;;;;5078801;28;20587;-86
2024/02/11 10:15:48;;;;;;;9.60;4.80;;;11.10;99.90;;;;;;5078850;28;20258;-85
2024/02/11 10:18:17;;;;;;;16.60;5.53;;;11.00;99.90;;;;;;5077646;28;20171;-86
2024/02/11 10:20:47;;;;;;;11.87;5.03;;;11.10;99.90;;;;;;5078184;28;20262;-85
2024/02/11 10:23:16;;;;;;;12.63;5.00;;;11.10;99.90;;;;;;5077990;28;20531;-87
2024/02/11 10:25:47;;;;;;;10.17;4.53;;;11.30;99.90;;;;;;5078019;28;20174;-87
2024/02/11 10:28:16;;;;;;;13.03;4.53;;;11.20;99.90;;;;;;5077988;28;20586;-88
2024/02/11 10:30:41;;;;;;;12.27;4.33;;;11.10;99.90;;;;;;5077886;28;20229;-86
2024/02/11 10:33:11;;;;;;;11.87;4.50;;;11.20;99.90;;;;;;5081118;28;20211;-86
2024/02/11 10:35:37;;;;;;;11.00;4.27;;;11.20;99.90;;;;;;5079285;28;20178;-85
2024/02/11 10:38:07;;;;;;;11.00;4.07;;;11.30;99.90;;;;;;5078068;28;20485;-86
2024/02/11 10:40:36;;;;;;;9.27;3.60;;;11.30;99.90;;;;;;5077342;28;20254;-85
2024/02/11 10:43:05;;;;;;;10.50;4.90;;;11.30;99.90;;;;;;5077645;28;20168;-84
2024/02/11 10:45:31;;;;;;;9.53;4.33;;;11.40;99.90;;;;;;5077188;28;20205;-86
2024/02/11 10:47:57;;;;;;;11.20;4.67;;;11.40;99.90;;;;;;5077334;28;20179;-86
2024/02/11 10:50:23;;;;;;;13.77;5.33;;;11.50;99.90;;;;;;5077018;28;20182;-85
2024/02/11 10:52:51;;;;;;;13.33;4.83;;;11.40;99.90;;;;;;5077716;28;20681;-84
2024/02/11 10:55:20;;;;;;;10.97;4.70;;;11.40;99.90;;;;;;5095825;28;20197;-85
2024/02/11 10:57:53;;;;;;;11.53;4.80;;;11.20;99.90;;;;;;5077454;28;20189;-85
2024/02/11 11:00:27;;;;;;;9.87;4.23;;;11.20;99.90;;;;;;5077373;28;20216;-85
2024/02/11 11:02:58;;;;;;;7.30;4.60;;;11.00;99.90;;;;;;5077013;28;20179;-85
2024/02/11 11:05:28;;;;;;;9.90;5.50;;;11.00;99.90;;;;;;5094857;28;20195;-85
2024/02/11 11:07:56;;;;;;;10.87;5.80;;;11.00;99.90;;;;;;5077064;28;20531;-85
2024/02/11 11:10:28;;;;;;;11.37;5.17;;;11.10;99.90;;;;;;5061265;28;20199;-85
2024/02/11 11:12:55;;;;;;;12.57;5.27;;;11.20;99.90;;;;;;5094727;28;20238;-84
2024/02/11 11:15:27;;;;;;;13.23;5.37;;;11.30;99.90;;;;;;5076671;28;20617;-84
2024/02/11 11:17:53;;;;;;;11.17;4.47;;;11.40;99.90;;;;;;5076802;28;20573;-84
2024/02/11 11:20:19;;;;;;;12.13;4.20;;;11.60;99.90;;;;;;5076346;28;20209;-85
2024/02/11 11:22:53;;;;;;;10.27;4.50;;;11.60;99.90;;;;;;5077142;28;20628;-85
2024/02/11 11:25:21;;;;;;;8.13;3.43;;;11.70;99.90;;;;;;5076756;28;20174;-86
2024/02/11 11:27:48;;;;;;;8.77;3.33;;;11.60;99.90;;;;;;5076693;28;20186;-85
2024/02/11 11:30:14;;;;;;;9.60;3.70;;;11.80;99.90;;;;;;5076467;28;20273;-85
2024/02/11 11:32:49;;;;;;;8.97;3.33;;;11.70;99.90;;;;;;5076128;28;20233;-85
2024/02/11 11:35:21;;;;;;;8.20;2.80;;;11.50;99.90;;;;;;5075924;28;20546;-85
2024/02/11 11:37:47;;;;;;;6.37;2.70;;;11.50;99.90;;;;;;5075818;28;20181;-85
2024/02/11 11:40:15;;;;;;;9.70;3.17;;;11.60;99.90;;;;;;5076248;28;20590;-86
2024/02/11 11:42:40;;;;;;;7.40;3.20;;;11.60;99.90;;;;;;5094218;28;20174;-85
2024/02/11 11:45:07;;;;;;;8.17;3.10;;;11.70;99.90;;;;;;5076211;28;20170;-84
2024/02/11 11:47:37;;;;;;;7.40;2.77;;;11.70;99.90;;;;;;5094431;28;20187;-86
2024/02/11 11:50:06;;;;;;;8.03;3.60;;;11.90;99.90;;;;;;5075987;28;20187;-85
2024/02/11 11:52:35;;;;;;;14.30;4.23;;;11.90;99.90;;;;;;5076245;28;20234;-85
2024/02/11 11:55:05;;;;;;;11.27;4.47;;;11.90;99.90;;;;;;5094507;28;20175;-86
2024/02/11 11:57:31;;;;;;;10.93;4.70;;;11.80;99.90;;;;;;5076121;28;20328;-85
2024/02/11 11:59:58;;;;;;;11.87;4.10;;;11.90;99.90;;;;;;5075686;28;20490;-85
2024/02/11 12:02:33;;;;;;;13.33;4.57;;;11.90;99.90;;;;;;5075733;28;20256;-84
2024/02/11 12:04:59;;;;;;;10.27;3.97;;;11.90;99.90;;;;;;5075465;28;20175;-84
2024/02/11 12:07:25;;;;;;;7.03;3.87;;;11.90;99.90;;;;;;5074991;28;20197;-84
2024/02/11 12:09:52;;;;;;;11.10;4.53;;;11.80;99.90;;;;;;5075722;28;20589;-85
2024/02/11 12:12:18;;;;;;;14.47;4.30;;;11.90;99.90;;;;;;5076196;28;20266;-84
2024/02/11 12:14:45;;;;;;;10.30;3.80;;;12.00;99.90;;;;;;5075529;28;20266;-84
2024/02/11 12:17:11;;;;;;;7.70;3.47;;;12.00;99.20;;;;;;5093582;28;20186;-85
2024/02/11 12:19:39;;;;;;;10.33;3.93;;;12.10;98.40;;;;;;5075275;28;20178;-85
2024/02/11 12:22:08;;;;;;;8.27;3.20;;;12.30;95.40;;;;;;5074819;28;20183;-85
2024/02/11 12:24:38;;;;;;;5.40;2.63;;;12.60;91.50;;;;;;5093760;28;20194;-85
2024/02/11 12:27:11;;;;;;;9.27;3.03;;;12.70;84.80;;;;;;5075517;28;20186;-85
2024/02/11 12:29:37;;;;;;;9.37;3.20;;;12.80;82.00;;;;;;5074950;28;20172;-84
2024/02/11 12:32:03;;;;;;;7.70;2.27;;;13.00;81.70;;;;;;5074652;28;20207;-85
2024/02/11 12:34:29;;;;;;;11.20;3.07;;;13.10;75.00;;;;;;5074941;28;20168;-85
2024/02/11 12:37:03;;;;;;;7.97;2.70;;;13.30;66.30;;;;;;5074841;28;20225;-84
2024/02/11 12:39:30;;;;;;;5.20;2.30;;;13.40;58.60;;;;;;5075006;28;20176;-85
2024/02/11 12:41:57;;;;;;;6.43;2.73;;;13.30;47.10;;;;;;5074757;28;20169;-85
2024/02/11 12:44:25;;;;;;;7.77;3.20;;;13.20;47.00;;;;;;5075021;28;20355;-84